Time;durP1;ratioP1;P1;durP2;ratioP2;P2;SDS_P1;SDS_P2;PMS_P1;PMS_P2;Temp;Humidity;BMP_temperature;BMP_pressure;BME280_temperature;BME280_humidity;BME280_pressure;Samples;Min_cycle;Max_cycle;Signal;HPM_P1;HPM_P2
2024/02/26 00:00:28;;;;;;;1.17;1.08;;;15.80;58.90;;;;;;5115355;28;20165;-63
2024/02/26 00:02:53;;;;;;;1.13;1.02;;;15.90;59.00;;;;;;5116244;28;20172;-62
2024/02/26 00:05:19;;;;;;;2.10;1.20;;;15.80;58.90;;;;;;5115717;28;20647;-62
2024/02/26 00:07:45;;;;;;;1.25;1.13;;;15.90;59.00;;;;;;5114135;28;20211;-62
2024/02/26 00:10:10;;;;;;;1.73;1.30;;;15.80;58.90;;;;;;5115709;28;20238;-63
2024/02/26 00:12:36;;;;;;;1.00;0.90;;;15.80;59.00;;;;;;5115896;28;20173;-63
2024/02/26 00:15:01;;;;;;;0.90;0.90;;;15.80;59.00;;;;;;5115464;28;20176;-63
2024/02/26 00:17:27;;;;;;;1.48;1.38;;;15.80;59.00;;;;;;5115695;28;20181;-62
2024/02/26 00:19:53;;;;;;;1.20;1.10;;;15.80;59.10;;;;;;5115951;28;20647;-62
2024/02/26 00:22:18;;;;;;;1.00;1.00;;;15.80;59.10;;;;;;5114757;28;20219;-63
2024/02/26 00:24:44;;;;;;;1.20;1.00;;;15.70;59.10;;;;;;5115638;28;20216;-63
2024/02/26 00:27:09;;;;;;;2.25;1.20;;;15.80;59.10;;;;;;5115300;28;20209;-62
2024/02/26 00:29:35;;;;;;;1.35;1.20;;;15.70;59.10;;;;;;5115094;28;20687;-62
2024/02/26 00:32:00;;;;;;;1.65;1.40;;;15.80;59.10;;;;;;5115720;28;20643;-62
2024/02/26 00:34:26;;;;;;;1.35;1.20;;;15.70;59.10;;;;;;5115222;28;20165;-62
2024/02/26 00:36:51;;;;;;;1.33;1.10;;;15.70;59.20;;;;;;5114856;28;20271;-63
2024/02/26 00:39:17;;;;;;;1.15;1.10;;;15.70;59.20;;;;;;5114762;27;20185;-63
2024/02/26 00:41:42;;;;;;;2.00;1.30;;;15.70;59.20;;;;;;5115432;28;20169;-63
2024/02/26 00:44:08;;;;;;;1.40;1.30;;;15.70;59.20;;;;;;5114597;28;20257;-62
2024/02/26 00:46:33;;;;;;;1.30;1.20;;;15.70;59.20;;;;;;5115418;28;20691;-62
2024/02/26 00:49:00;;;;;;;1.05;1.00;;;15.60;59.20;;;;;;5115192;28;20699;-61
2024/02/26 00:51:25;;;;;;;1.38;1.27;;;15.70;59.20;;;;;;5114276;28;20177;-63
2024/02/26 00:53:51;;;;;;;1.55;1.20;;;15.60;59.10;;;;;;5114805;28;20643;-62
2024/02/26 00:56:16;;;;;;;1.10;1.10;;;15.60;59.20;;;;;;5112985;28;20180;-63
2024/02/26 00:58:42;;;;;;;1.00;1.00;;;15.60;59.20;;;;;;5115071;28;20654;-63
2024/02/26 01:01:07;;;;;;;1.20;1.13;;;15.60;59.20;;;;;;5114901;28;20184;-62
2024/02/26 01:03:33;;;;;;;1.00;1.00;;;15.60;59.30;;;;;;5114523;28;20184;-61
2024/02/26 01:06:01;;;;;;;1.77;1.13;;;15.60;59.30;;;;;;5115213;28;20275;-62
2024/02/26 01:08:27;;;;;;;0.88;0.88;;;15.60;59.30;;;;;;5114500;28;20698;-62
2024/02/26 01:10:52;;;;;;;1.40;1.15;;;15.60;59.30;;;;;;5114178;28;20267;-62
2024/02/26 01:13:18;;;;;;;1.40;1.30;;;15.60;59.40;;;;;;5114608;28;20264;-62
2024/02/26 01:15:43;;;;;;;1.52;1.42;;;15.60;59.30;;;;;;5114836;28;20184;-62
2024/02/26 01:18:09;;;;;;;1.02;1.02;;;15.60;59.30;;;;;;5113697;28;20188;-62
2024/02/26 01:20:35;;;;;;;1.40;1.30;;;15.60;59.40;;;;;;5114861;28;20176;-62
2024/02/26 01:23:00;;;;;;;2.55;1.20;;;15.50;59.40;;;;;;5114578;28;20232;-62
2024/02/26 01:25:26;;;;;;;1.23;1.13;;;15.60;59.40;;;;;;5113642;28;20604;-61
2024/02/26 01:27:51;;;;;;;0.80;0.80;;;15.60;59.40;;;;;;5114429;28;20299;-61
2024/02/26 01:30:17;;;;;;;1.48;1.38;;;15.60;59.50;;;;;;5114336;28;20263;-62
2024/02/26 01:32:42;;;;;;;1.30;1.20;;;15.50;59.50;;;;;;5113937;28;20173;-61
2024/02/26 01:35:10;;;;;;;1.40;1.30;;;15.50;59.50;;;;;;5114347;28;20256;-62
2024/02/26 01:37:39;;;;;;;1.40;1.30;;;15.60;59.50;;;;;;5114441;28;20180;-62
2024/02/26 01:40:06;;;;;;;1.40;1.17;;;15.50;59.30;;;;;;5113579;28;20753;-62
2024/02/26 01:42:32;;;;;;;1.00;1.00;;;15.50;59.40;;;;;;5114033;28;20204;-62
2024/02/26 01:44:58;;;;;;;1.30;1.20;;;15.50;59.50;;;;;;5114177;28;20253;-61
2024/02/26 01:47:24;;;;;;;1.67;1.25;;;15.50;59.50;;;;;;5113016;28;20215;-61
2024/02/26 01:49:49;;;;;;;1.20;1.10;;;15.50;59.50;;;;;;5114032;28;20271;-61
2024/02/26 01:52:15;;;;;;;1.30;1.20;;;15.50;59.50;;;;;;5112619;28;20268;-61
2024/02/26 01:54:43;;;;;;;1.20;1.10;;;15.50;59.40;;;;;;5113249;28;20195;-61
2024/02/26 01:57:09;;;;;;;1.17;1.00;;;15.50;59.50;;;;;;5112393;28;20224;-62
2024/02/26 01:59:34;;;;;;;1.33;1.20;;;15.50;59.40;;;;;;5113322;28;20530;-61
2024/02/26 02:02:01;;;;;;;1.38;1.27;;;15.50;59.40;;;;;;5112787;28;20631;-61
2024/02/26 02:04:27;;;;;;;0.98;0.93;;;15.40;59.30;;;;;;5112383;28;20169;-61
2024/02/26 02:06:52;;;;;;;0.95;0.95;;;15.50;59.30;;;;;;5111324;28;20193;-62
2024/02/26 02:09:18;;;;;;;1.23;1.10;;;15.50;59.30;;;;;;5112457;28;20230;-61
2024/02/26 02:11:44;;;;;;;1.13;1.05;;;15.50;59.30;;;;;;5113542;28;20574;-62
2024/02/26 02:14:10;;;;;;;1.30;1.20;;;15.50;59.40;;;;;;5111352;28;20635;-61
2024/02/26 02:16:35;;;;;;;1.30;1.20;;;15.40;59.40;;;;;;5113624;28;20177;-61
2024/02/26 02:19:01;;;;;;;1.35;1.25;;;15.40;59.40;;;;;;5113004;28;20226;-62
2024/02/26 02:21:26;;;;;;;1.38;1.20;;;15.40;59.40;;;;;;5112893;28;20181;-63
2024/02/26 02:23:52;;;;;;;1.42;1.33;;;15.40;59.50;;;;;;5113891;28;20666;-62
2024/02/26 02:26:17;;;;;;;1.40;1.30;;;15.40;59.40;;;;;;5113261;28;20216;-61
2024/02/26 02:28:46;;;;;;;1.30;1.20;;;15.40;59.40;;;;;;5111701;28;20272;-62
2024/02/26 02:31:11;;;;;;;1.10;1.00;;;15.40;59.40;;;;;;5111912;27;20699;-61
2024/02/26 02:33:37;;;;;;;1.30;1.20;;;15.40;59.40;;;;;;5112175;28;20288;-61
2024/02/26 02:36:03;;;;;;;1.20;1.10;;;15.40;59.40;;;;;;5111257;28;20632;-62
2024/02/26 02:38:29;;;;;;;1.00;1.00;;;15.40;59.40;;;;;;5112921;28;20188;-62
2024/02/26 02:40:55;;;;;;;2.10;1.48;;;15.40;59.40;;;;;;5113334;28;20251;-62
2024/02/26 02:43:20;;;;;;;1.30;1.20;;;15.30;59.50;;;;;;5112090;28;20185;-62
2024/02/26 02:45:46;;;;;;;1.33;1.23;;;15.30;59.40;;;;;;5113119;28;20176;-62
2024/02/26 02:48:11;;;;;;;1.50;1.20;;;15.40;59.50;;;;;;5112082;28;20224;-62
2024/02/26 02:50:37;;;;;;;1.30;1.20;;;15.30;60.10;;;;;;5112136;28;20217;-61
2024/02/26 02:53:03;;;;;;;1.15;1.05;;;15.40;59.40;;;;;;5113152;28;20273;-62
2024/02/26 02:55:31;;;;;;;1.50;1.40;;;15.30;59.40;;;;;;5112685;28;20173;-62
2024/02/26 02:57:57;;;;;;;1.40;1.30;;;15.40;59.40;;;;;;5112046;28;20225;-62
2024/02/26 03:00:22;;;;;;;1.52;1.27;;;15.30;59.40;;;;;;5112584;28;20294;-62
2024/02/26 03:02:49;;;;;;;1.52;1.25;;;15.30;59.40;;;;;;5112134;28;20279;-62
2024/02/26 03:05:14;;;;;;;1.25;1.20;;;15.30;59.40;;;;;;5112366;27;20244;-62
2024/02/26 03:07:40;;;;;;;1.40;1.30;;;15.30;59.40;;;;;;5112530;28;20670;-62
2024/02/26 03:10:06;;;;;;;1.55;1.27;;;15.30;59.40;;;;;;5111929;28;20222;-62
2024/02/26 03:12:32;;;;;;;1.10;1.10;;;15.30;59.60;;;;;;5112419;28;20184;-62
2024/02/26 03:14:57;;;;;;;1.40;1.30;;;15.30;59.50;;;;;;5112533;28;20631;-62
2024/02/26 03:17:24;;;;;;;1.40;1.30;;;15.30;59.50;;;;;;5111053;28;20187;-62
2024/02/26 03:19:53;;;;;;;1.42;1.33;;;15.30;59.60;;;;;;5112367;28;20177;-62
2024/02/26 03:22:18;;;;;;;1.35;1.25;;;15.30;59.60;;;;;;5112064;28;20176;-62
2024/02/26 03:24:44;;;;;;;1.30;1.20;;;15.30;59.70;;;;;;5111933;28;20689;-62
2024/02/26 03:27:10;;;;;;;1.25;1.17;;;15.30;59.60;;;;;;5112215;28;20209;-61
2024/02/26 03:29:39;;;;;;;1.33;1.23;;;15.30;59.60;;;;;;5112625;28;20200;-61
2024/02/26 03:32:05;;;;;;;1.10;1.10;;;15.30;59.60;;;;;;5111861;28;20173;-62
2024/02/26 03:34:34;;;;;;;1.33;1.23;;;15.30;59.60;;;;;;5112038;28;20711;-62
2024/02/26 03:36:59;;;;;;;2.08;1.58;;;15.20;59.50;;;;;;5112605;28;20173;-63
2024/02/26 03:39:25;;;;;;;1.20;1.15;;;15.20;59.60;;;;;;5111452;28;20173;-62
2024/02/26 03:41:50;;;;;;;1.40;1.20;;;15.30;59.70;;;;;;5112455;28;20181;-62
2024/02/26 03:44:16;;;;;;;1.13;1.13;;;15.20;59.70;;;;;;5112054;28;20169;-62
2024/02/26 03:46:45;;;;;;;1.52;1.38;;;15.20;59.60;;;;;;5111528;28;20220;-62
2024/02/26 03:49:10;;;;;;;1.00;1.00;;;15.20;59.60;;;;;;5111811;28;20181;-62
2024/02/26 03:51:37;;;;;;;1.38;1.10;;;15.20;59.60;;;;;;5112192;28;20519;-61
2024/02/26 03:54:02;;;;;;;1.10;1.10;;;15.20;59.70;;;;;;5111669;28;20255;-62
2024/02/26 03:56:28;;;;;;;1.40;1.30;;;15.20;59.70;;;;;;5111847;28;20260;-62
2024/02/26 03:58:54;;;;;;;1.50;1.40;;;15.20;59.80;;;;;;5112262;28;20265;-62
2024/02/26 04:01:19;;;;;;;1.33;1.23;;;15.20;59.70;;;;;;5111096;28;20170;-62
2024/02/26 04:03:45;;;;;;;1.08;1.08;;;15.20;59.80;;;;;;5112022;28;20196;-62
2024/02/26 04:06:10;;;;;;;1.30;1.20;;;15.20;60.60;;;;;;5111308;28;20176;-62
2024/02/26 04:08:37;;;;;;;1.20;1.10;;;15.20;59.80;;;;;;5112245;28;20611;-62
2024/02/26 04:11:07;;;;;;;1.27;1.20;;;15.20;59.90;;;;;;5112147;28;20208;-62
2024/02/26 04:13:33;;;;;;;1.88;1.52;;;15.20;59.80;;;;;;5111207;28;20180;-62
2024/02/26 04:16:01;;;;;;;1.55;1.45;;;15.20;59.80;;;;;;5112107;28;20177;-62
2024/02/26 04:18:26;;;;;;;1.40;1.30;;;15.10;59.80;;;;;;5111609;28;20181;-62
2024/02/26 04:20:52;;;;;;;1.33;1.23;;;15.20;59.80;;;;;;5111419;28;20180;-62
2024/02/26 04:23:17;;;;;;;1.42;1.33;;;15.20;60.70;;;;;;5111804;28;20224;-62
2024/02/26 04:25:43;;;;;;;1.42;1.35;;;15.20;59.80;;;;;;5111842;28;20645;-62
2024/02/26 04:28:08;;;;;;;1.30;1.20;;;15.20;59.90;;;;;;5110745;28;20201;-62
2024/02/26 04:30:34;;;;;;;1.33;1.30;;;15.20;59.90;;;;;;5115016;28;20268;-61
2024/02/26 04:32:59;;;;;;;1.60;1.48;;;15.20;59.90;;;;;;5115464;28;20260;-61
2024/02/26 04:35:25;;;;;;;1.10;1.10;;;15.20;59.90;;;;;;5114555;28;20169;-62
2024/02/26 04:37:51;;;;;;;1.70;1.20;;;15.10;59.90;;;;;;5115754;28;20188;-62
2024/02/26 04:40:16;;;;;;;1.48;1.27;;;15.10;59.90;;;;;;5115239;28;20203;-62
2024/02/26 04:42:42;;;;;;;1.20;1.20;;;15.10;59.90;;;;;;5114779;28;20169;-62
2024/02/26 04:45:08;;;;;;;1.40;1.30;;;15.10;59.90;;;;;;5115155;28;20176;-64
2024/02/26 04:47:34;;;;;;;1.38;1.27;;;15.10;59.90;;;;;;5115159;28;20216;-61
2024/02/26 04:49:59;;;;;;;1.45;1.35;;;15.10;59.90;;;;;;5114708;28;20255;-61
2024/02/26 04:52:25;;;;;;;1.58;1.48;;;15.10;59.90;;;;;;5115044;28;20173;-61
2024/02/26 04:54:51;;;;;;;1.58;1.48;;;15.10;59.90;;;;;;5115102;28;20505;-61
2024/02/26 04:57:18;;;;;;;1.60;1.50;;;15.10;59.90;;;;;;5113978;28;20232;-62
2024/02/26 04:59:44;;;;;;;1.33;1.23;;;15.10;59.90;;;;;;5114985;28;20644;-61
2024/02/26 05:02:10;;;;;;;1.20;1.10;;;15.10;59.90;;;;;;5114622;28;20557;-61
2024/02/26 05:04:35;;;;;;;1.38;1.10;;;15.10;59.90;;;;;;5114232;28;20176;-61
2024/02/26 05:07:01;;;;;;;1.75;1.30;;;15.00;59.90;;;;;;5114848;28;20203;-62
2024/02/26 05:09:26;;;;;;;1.40;1.30;;;15.10;60.00;;;;;;5113986;28;20173;-61
2024/02/26 05:11:52;;;;;;;1.48;1.38;;;15.10;60.00;;;;;;5114891;28;20181;-62
2024/02/26 05:14:18;;;;;;;1.40;1.30;;;15.10;60.00;;;;;;5114563;28;20172;-62
2024/02/26 05:16:43;;;;;;;1.35;1.30;;;15.10;60.00;;;;;;5113981;28;20587;-62
2024/02/26 05:19:09;;;;;;;1.73;1.48;;;15.10;60.10;;;;;;5114325;28;20208;-61
2024/02/26 05:21:34;;;;;;;1.58;1.40;;;15.00;59.90;;;;;;5114693;28;20249;-62
2024/02/26 05:24:00;;;;;;;1.30;1.20;;;15.00;59.90;;;;;;5113822;28;20226;-62
2024/02/26 05:26:26;;;;;;;1.40;1.30;;;15.00;59.90;;;;;;5114264;28;20169;-62
2024/02/26 05:28:52;;;;;;;1.20;1.10;;;15.00;59.90;;;;;;5114550;28;20242;-61
2024/02/26 05:31:18;;;;;;;2.28;1.30;;;15.00;59.90;;;;;;5113426;28;20161;-61
2024/02/26 05:33:44;;;;;;;1.38;1.27;;;15.00;59.90;;;;;;5114642;28;20184;-61
2024/02/26 05:36:09;;;;;;;2.35;1.60;;;15.00;60.00;;;;;;5114229;28;20161;-62
2024/02/26 05:38:35;;;;;;;1.27;1.17;;;15.00;60.10;;;;;;5113373;27;20588;-62
2024/02/26 05:41:01;;;;;;;1.27;1.20;;;15.00;59.90;;;;;;5113689;28;20165;-62
2024/02/26 05:43:27;;;;;;;1.27;1.27;;;15.00;60.00;;;;;;5113913;28;20658;-61
2024/02/26 05:45:52;;;;;;;1.20;1.20;;;15.00;60.90;;;;;;5113377;28;20547;-61
2024/02/26 05:48:19;;;;;;;1.42;1.33;;;15.00;60.10;;;;;;5114023;28;20687;-61
2024/02/26 05:50:47;;;;;;;1.40;1.30;;;15.00;60.10;;;;;;5114385;28;20183;-62
2024/02/26 05:53:13;;;;;;;1.58;1.40;;;15.00;60.00;;;;;;5113233;28;20173;-61
2024/02/26 05:55:38;;;;;;;1.55;1.45;;;15.00;59.90;;;;;;5114031;28;20169;-62
2024/02/26 05:58:04;;;;;;;1.20;1.10;;;15.00;59.90;;;;;;5114075;28;20248;-62
2024/02/26 06:00:29;;;;;;;1.13;1.08;;;15.10;59.90;;;;;;5112918;28;20184;-62
2024/02/26 06:02:55;;;;;;;1.00;1.00;;;15.10;59.90;;;;;;5113789;28;20196;-62
2024/02/26 06:05:20;;;;;;;1.42;1.00;;;15.20;59.80;;;;;;5113411;28;20201;-61
2024/02/26 06:07:46;;;;;;;1.10;1.00;;;15.30;59.90;;;;;;5113103;28;20200;-62
2024/02/26 06:10:13;;;;;;;1.33;1.23;;;15.30;59.80;;;;;;5113532;28;20624;-62
2024/02/26 06:12:39;;;;;;;1.40;1.30;;;15.40;59.70;;;;;;5112990;28;20177;-63
2024/02/26 06:15:05;;;;;;;1.95;1.10;;;15.40;59.60;;;;;;5113443;28;20639;-62
2024/02/26 06:17:30;;;;;;;1.08;1.05;;;15.50;59.50;;;;;;5113357;28;20192;-61
2024/02/26 06:19:56;;;;;;;1.33;1.23;;;15.50;59.50;;;;;;5113033;28;20254;-62
2024/02/26 06:22:21;;;;;;;1.75;1.08;;;15.60;59.50;;;;;;5113438;28;20184;-62
2024/02/26 06:24:47;;;;;;;1.30;1.20;;;15.60;59.40;;;;;;5113467;28;20177;-62
2024/02/26 06:27:12;;;;;;;1.30;1.20;;;15.70;59.40;;;;;;5112217;28;20212;-61
2024/02/26 06:29:39;;;;;;;1.02;1.00;;;15.70;59.20;;;;;;5113249;28;20241;-61
2024/02/26 06:32:05;;;;;;;1.25;1.15;;;15.70;59.20;;;;;;5113280;28;20180;-61
2024/02/26 06:34:30;;;;;;;1.10;1.00;;;15.80;59.10;;;;;;5112295;28;20181;-62
2024/02/26 06:36:56;;;;;;;1.02;1.00;;;15.80;59.00;;;;;;5113109;28;20632;-62
2024/02/26 06:39:21;;;;;;;1.10;1.10;;;15.90;59.00;;;;;;5112899;28;20256;-62
2024/02/26 06:41:47;;;;;;;1.20;1.10;;;15.90;58.80;;;;;;5112436;28;20169;-62
2024/02/26 06:44:13;;;;;;;1.20;1.10;;;16.00;58.90;;;;;;5112622;28;20263;-62
2024/02/26 06:46:39;;;;;;;1.00;1.00;;;16.00;58.80;;;;;;5113102;28;20252;-61
2024/02/26 06:49:05;;;;;;;1.20;1.10;;;16.00;58.80;;;;;;5112254;28;20329;-61
2024/02/26 06:51:30;;;;;;;0.70;0.70;;;16.10;58.90;;;;;;5112775;28;20177;-61
2024/02/26 06:53:59;;;;;;;1.40;1.00;;;16.20;58.80;;;;;;5112058;28;20286;-62
2024/02/26 06:56:24;;;;;;;0.95;0.95;;;16.30;58.60;;;;;;5111594;28;20243;-62
2024/02/26 06:58:50;;;;;;;0.95;0.90;;;16.50;58.40;;;;;;5112820;28;20639;-62
2024/02/26 07:01:15;;;;;;;1.40;1.20;;;16.60;58.20;;;;;;5112678;28;20630;-62
2024/02/26 07:03:41;;;;;;;1.10;0.98;;;16.70;58.00;;;;;;5112172;28;20242;-61
2024/02/26 07:06:10;;;;;;;1.00;0.90;;;16.80;57.90;;;;;;5112874;28;20643;-62
2024/02/26 07:08:35;;;;;;;0.90;0.90;;;16.80;57.70;;;;;;5111554;28;20213;-62
2024/02/26 07:11:07;;;;;;;1.20;0.80;;;16.80;57.70;;;;;;5111950;28;20648;-62
2024/02/26 07:13:33;;;;;;;0.80;0.80;;;16.90;57.80;;;;;;5112771;28;20180;-62
2024/02/26 07:15:58;;;;;;;0.90;0.90;;;17.00;57.60;;;;;;5112067;28;20168;-62
2024/02/26 07:18:24;;;;;;;1.75;1.00;;;17.10;57.60;;;;;;5112417;28;20180;-62
2024/02/26 07:20:49;;;;;;;1.27;1.10;;;17.10;57.50;;;;;;5112683;28;20573;-62
2024/02/26 07:23:15;;;;;;;1.00;1.00;;;17.20;57.30;;;;;;5111439;28;20959;-62
2024/02/26 07:25:40;;;;;;;1.10;1.00;;;17.30;57.00;;;;;;5112483;28;20172;-61
2024/02/26 07:28:06;;;;;;;1.20;1.08;;;17.30;57.10;;;;;;5112365;28;20678;-62
2024/02/26 07:30:32;;;;;;;2.63;0.90;;;17.40;57.00;;;;;;5111174;28;20639;-62
2024/02/26 07:32:57;;;;;;;1.15;1.05;;;17.40;57.00;;;;;;5112342;28;20184;-62
2024/02/26 07:35:23;;;;;;;1.50;0.93;;;17.50;56.90;;;;;;5111882;28;20176;-62
2024/02/26 07:37:50;;;;;;;1.95;1.17;;;17.50;56.90;;;;;;5110759;28;20188;-62
2024/02/26 07:40:15;;;;;;;1.05;1.00;;;17.40;57.50;;;;;;5110719;28;20263;-62
2024/02/26 07:42:41;;;;;;;1.90;1.10;;;17.50;56.90;;;;;;5111353;28;20185;-62
2024/02/26 07:45:07;;;;;;;7.03;1.30;;;17.50;57.10;;;;;;5110951;28;20171;-61
2024/02/26 07:47:34;;;;;;;1.58;1.23;;;17.40;57.00;;;;;;5111543;28;20295;-62
2024/02/26 07:50:00;;;;;;;1.85;1.10;;;17.40;57.00;;;;;;5111382;28;20180;-61
2024/02/26 07:52:25;;;;;;;1.77;0.93;;;17.40;57.20;;;;;;5110221;28;20535;-61
2024/02/26 07:54:51;;;;;;;2.17;1.25;;;17.40;57.50;;;;;;5112084;28;20169;-62
2024/02/26 07:57:17;;;;;;;1.30;1.10;;;17.40;57.50;;;;;;5111628;28;20228;-61
2024/02/26 07:59:43;;;;;;;2.17;1.00;;;17.50;57.40;;;;;;5111274;28;20531;-63
2024/02/26 08:02:08;;;;;;;2.65;1.17;;;17.50;57.30;;;;;;5111986;28;20176;-62
2024/02/26 08:04:34;;;;;;;2.42;1.20;;;17.50;57.40;;;;;;5114019;28;20173;-62
2024/02/26 08:06:59;;;;;;;2.20;1.50;;;17.50;57.50;;;;;;5115629;28;20204;-63
2024/02/26 08:09:25;;;;;;;1.30;1.20;;;17.60;57.50;;;;;;5115913;28;20184;-62
2024/02/26 08:11:50;;;;;;;2.28;1.05;;;17.50;57.50;;;;;;5115981;28;20264;-62
2024/02/26 08:14:16;;;;;;;1.55;1.20;;;17.60;57.60;;;;;;5115499;28;20169;-63
2024/02/26 08:16:41;;;;;;;2.10;1.35;;;17.60;57.70;;;;;;5116318;28;20165;-63
2024/02/26 08:19:07;;;;;;;3.25;1.20;;;17.50;57.70;;;;;;5116091;28;20181;-62
2024/02/26 08:21:32;;;;;;;2.58;1.42;;;17.60;57.70;;;;;;5115014;28;20192;-63
2024/02/26 08:23:58;;;;;;;2.00;1.10;;;17.50;57.80;;;;;;5114997;28;20242;-62
2024/02/26 08:26:24;;;;;;;3.38;1.75;;;17.50;57.80;;;;;;5114709;28;20214;-63
2024/02/26 08:28:51;;;;;;;1.65;1.40;;;17.50;57.80;;;;;;5115758;28;20273;-62
2024/02/26 08:31:16;;;;;;;1.80;1.67;;;17.40;57.70;;;;;;5115210;28;20252;-62
2024/02/26 08:33:42;;;;;;;3.13;1.80;;;17.40;58.40;;;;;;5114962;28;20298;-62
2024/02/26 08:36:08;;;;;;;1.55;1.40;;;17.40;57.90;;;;;;5115372;28;20547;-62
2024/02/26 08:38:35;;;;;;;2.17;1.20;;;17.20;58.10;;;;;;5115432;28;20177;-63
2024/02/26 08:41:02;;;;;;;4.97;1.60;;;17.10;58.30;;;;;;5115011;28;20624;-63
2024/02/26 08:43:28;;;;;;;1.45;1.33;;;17.10;58.40;;;;;;5115360;28;20181;-62
2024/02/26 08:45:53;;;;;;;1.30;1.20;;;17.10;58.40;;;;;;5115534;28;20203;-62
2024/02/26 08:48:19;;;;;;;3.70;1.40;;;17.10;58.50;;;;;;5114207;28;20350;-61
2024/02/26 08:50:44;;;;;;;1.85;1.02;;;16.90;58.50;;;;;;5115360;28;20172;-62
2024/02/26 08:53:10;;;;;;;3.35;1.30;;;16.90;58.60;;;;;;5113703;28;20173;-61
2024/02/26 08:55:35;;;;;;;4.28;1.40;;;17.00;58.80;;;;;;5114736;28;20169;-62
2024/02/26 08:58:01;;;;;;;1.98;1.30;;;16.90;59.40;;;;;;5115119;28;20744;-62
2024/02/26 09:00:27;;;;;;;1.85;1.50;;;16.90;58.80;;;;;;5115074;28;20525;-62
2024/02/26 09:02:52;;;;;;;1.50;1.27;;;17.00;58.80;;;;;;5114605;28;20173;-62
2024/02/26 09:05:20;;;;;;;2.17;1.48;;;17.00;58.80;;;;;;5114870;28;20542;-62
2024/02/26 09:07:46;;;;;;;2.10;1.10;;;17.00;58.80;;;;;;5114885;28;20296;-62
2024/02/26 09:10:12;;;;;;;3.13;1.25;;;17.00;58.80;;;;;;5114083;28;20255;-62
2024/02/26 09:12:38;;;;;;;2.70;1.33;;;17.00;58.80;;;;;;5114892;28;20264;-63
2024/02/26 09:15:04;;;;;;;1.73;1.50;;;17.00;58.70;;;;;;5114674;28;20177;-62
2024/02/26 09:17:29;;;;;;;4.88;1.58;;;17.00;58.80;;;;;;5113114;28;20653;-62
2024/02/26 09:19:55;;;;;;;1.23;1.13;;;17.00;58.70;;;;;;5114879;28;20169;-62
2024/02/26 09:22:20;;;;;;;1.38;1.27;;;17.00;58.80;;;;;;5114379;28;20183;-62
2024/02/26 09:24:46;;;;;;;1.45;1.23;;;17.00;58.80;;;;;;5113819;28;20180;-62
2024/02/26 09:27:11;;;;;;;1.30;1.20;;;17.10;58.80;;;;;;5113186;28;20227;-63
2024/02/26 09:29:37;;;;;;;2.35;1.33;;;17.10;58.70;;;;;;5113947;28;20182;-66
2024/02/26 09:32:02;;;;;;;2.45;1.45;;;17.10;58.60;;;;;;5114565;28;20168;-68
2024/02/26 09:34:28;;;;;;;5.90;1.25;;;17.10;58.80;;;;;;5113962;28;20394;-63
2024/02/26 09:36:53;;;;;;;2.83;1.33;;;17.10;58.80;;;;;;5113602;28;20248;-67
2024/02/26 09:39:21;;;;;;;3.70;1.52;;;17.00;58.70;;;;;;5113902;28;20176;-67
2024/02/26 09:41:48;;;;;;;3.22;1.38;;;17.00;58.80;;;;;;5114248;28;20177;-66
2024/02/26 09:44:23;;;;;;;2.53;1.42;;;17.00;58.90;;;;;;5113167;28;20184;-66
2024/02/26 09:46:52;;;;;;;2.47;1.40;;;16.90;59.00;;;;;;5114191;28;20179;-66
2024/02/26 09:49:19;;;;;;;1.35;1.10;;;16.90;59.10;;;;;;5113828;28;20179;-66
2024/02/26 09:51:45;;;;;;;1.75;1.35;;;16.90;59.20;;;;;;5112067;28;20177;-67
2024/02/26 09:54:10;;;;;;;2.50;1.30;;;16.90;59.20;;;;;;5112705;28;20218;-67
2024/02/26 09:56:38;;;;;;;2.05;1.40;;;16.90;59.20;;;;;;5112598;28;20350;-67
2024/02/26 09:59:03;;;;;;;3.00;1.05;;;16.90;59.30;;;;;;5111723;28;20179;-67
2024/02/26 10:01:33;;;;;;;1.45;0.98;;;16.90;59.20;;;;;;5111940;28;20264;-67
2024/02/26 10:03:58;;;;;;;2.35;1.38;;;16.90;59.30;;;;;;5112124;28;20627;-67
2024/02/26 10:06:26;;;;;;;1.75;1.20;;;16.80;59.30;;;;;;5110997;28;20230;-67
2024/02/26 10:08:51;;;;;;;3.15;1.08;;;16.80;59.40;;;;;;5113445;28;20205;-67
2024/02/26 10:11:17;;;;;;;3.80;1.27;;;16.70;59.50;;;;;;5111611;28;20612;-67
2024/02/26 10:13:42;;;;;;;2.42;1.20;;;16.70;59.50;;;;;;5112588;28;20628;-68
2024/02/26 10:16:08;;;;;;;1.52;1.00;;;16.70;59.60;;;;;;5112911;28;20234;-69
2024/02/26 10:18:45;;;;;;;1.40;1.30;;;16.60;59.50;;;;;;5112826;28;20574;-69
2024/02/26 10:21:10;;;;;;;2.45;1.25;;;16.60;59.60;;;;;;5112692;28;20173;-67
2024/02/26 10:23:36;;;;;;;1.63;1.30;;;16.60;59.80;;;;;;5113424;28;20181;-67
2024/02/26 10:26:01;;;;;;;1.30;1.20;;;16.60;59.70;;;;;;5113122;28;20169;-67
2024/02/26 10:28:27;;;;;;;1.27;1.17;;;16.60;59.70;;;;;;5111680;28;20538;-67
2024/02/26 10:30:53;;;;;;;1.38;1.08;;;16.50;59.80;;;;;;5111977;28;20697;-67
2024/02/26 10:33:18;;;;;;;2.65;1.25;;;16.50;59.80;;;;;;5112332;28;20543;-67
2024/02/26 10:35:47;;;;;;;2.00;1.25;;;16.50;59.90;;;;;;5113362;28;20218;-68
2024/02/26 10:38:13;;;;;;;1.50;1.10;;;16.60;59.80;;;;;;5113072;28;20169;-69
2024/02/26 10:40:39;;;;;;;1.38;1.10;;;16.60;59.80;;;;;;5112476;28;20169;-68
2024/02/26 10:43:05;;;;;;;2.95;1.40;;;16.60;59.80;;;;;;5111884;28;20222;-68
2024/02/26 10:45:32;;;;;;;1.00;0.90;;;16.60;59.70;;;;;;5112536;28;20173;-67
2024/02/26 10:47:57;;;;;;;0.80;0.80;;;16.60;59.70;;;;;;5111480;28;20671;-66
2024/02/26 10:50:23;;;;;;;1.30;1.20;;;16.60;59.70;;;;;;5110782;28;20245;-67
2024/02/26 10:52:48;;;;;;;1.95;0.90;;;16.60;59.70;;;;;;5111597;28;20183;-67
2024/02/26 10:55:19;;;;;;;2.55;1.10;;;16.60;59.70;;;;;;5110691;28;20229;-67
2024/02/26 10:57:45;;;;;;;1.48;1.10;;;16.60;59.70;;;;;;5112716;28;20315;-68
2024/02/26 11:00:13;;;;;;;1.63;1.10;;;16.60;59.70;;;;;;5112469;28;20265;-68
2024/02/26 11:02:41;;;;;;;1.20;1.10;;;16.50;59.70;;;;;;5111901;28;20180;-68
2024/02/26 11:05:07;;;;;;;1.08;0.98;;;16.50;59.80;;;;;;5111627;28;20177;-65
2024/02/26 11:07:36;;;;;;;1.00;1.00;;;16.50;60.20;;;;;;5112496;28;20200;-67
2024/02/26 11:10:06;;;;;;;1.40;1.20;;;16.50;60.00;;;;;;5110712;28;20177;-67
2024/02/26 11:12:32;;;;;;;0.80;0.80;;;16.40;60.00;;;;;;5112252;28;20173;-68
2024/02/26 11:14:58;;;;;;;2.58;1.30;;;16.40;60.00;;;;;;5112500;28;20682;-63
2024/02/26 11:17:27;;;;;;;1.48;1.13;;;16.40;59.90;;;;;;5111735;28;20177;-64
2024/02/26 11:19:55;;;;;;;3.28;1.50;;;16.40;60.00;;;;;;5112626;28;20241;-65
2024/02/26 11:22:21;;;;;;;1.63;1.10;;;16.40;60.00;;;;;;5110234;28;20173;-66
2024/02/26 11:24:48;;;;;;;1.08;1.08;;;16.40;60.20;;;;;;5112394;28;20173;-65
2024/02/26 11:27:14;;;;;;;2.70;1.10;;;16.40;60.00;;;;;;5110610;28;20322;-64
2024/02/26 11:29:50;;;;;;;1.13;0.90;;;16.40;59.80;;;;;;5110308;28;20256;-65
2024/02/26 11:32:16;;;;;;;0.70;0.70;;;16.40;59.90;;;;;;5110813;28;20204;-66
2024/02/26 11:34:41;;;;;;;2.08;0.80;;;16.50;60.00;;;;;;5112329;28;20342;-69
2024/02/26 11:37:11;;;;;;;2.05;1.20;;;16.50;60.00;;;;;;5110555;28;20711;-67
2024/02/26 11:39:38;;;;;;;3.20;1.30;;;16.60;59.80;;;;;;5112975;28;20230;-65
2024/02/26 11:42:08;;;;;;;1.60;0.95;;;16.70;59.80;;;;;;5116599;28;20277;-68
2024/02/26 11:44:33;;;;;;;3.78;1.38;;;16.80;59.60;;;;;;5115927;28;20548;-68
2024/02/26 11:47:01;;;;;;;1.10;1.00;;;16.80;59.50;;;;;;5116521;28;20205;-65
2024/02/26 11:49:31;;;;;;;3.10;1.13;;;16.90;59.40;;;;;;5114722;28;20199;-65
2024/02/26 11:52:03;;;;;;;1.17;0.90;;;17.00;59.30;;;;;;5115616;28;20309;-65
2024/02/26 11:54:52;;;;;;;1.08;1.00;;;17.10;59.10;;;;;;5115862;28;20260;-65
2024/02/26 11:57:23;;;;;;;1.00;0.95;;;17.10;58.90;;;;;;5114796;28;20788;-64
2024/02/26 11:59:49;;;;;;;1.00;0.90;;;17.20;58.80;;;;;;5116343;28;20256;-67
2024/02/26 12:02:42;;;;;;;1.10;1.00;;;17.30;59.40;;;;;;5115961;28;20184;-67
2024/02/26 12:05:23;;;;;;;2.15;1.05;;;17.30;58.60;;;;;;5115276;28;20184;-67
2024/02/26 12:07:51;;;;;;;0.88;0.88;;;17.40;58.60;;;;;;5116176;28;20212;-67
2024/02/26 12:10:35;;;;;;;1.05;0.93;;;17.50;58.50;;;;;;5114380;28;20260;-67
2024/02/26 12:13:14;;;;;;;1.80;0.90;;;17.50;58.50;;;;;;5115391;28;20256;-67
2024/02/26 12:15:41;;;;;;;2.10;0.88;;;17.50;58.40;;;;;;5116118;28;20177;-68
2024/02/26 12:18:09;;;;;;;0.68;0.68;;;17.60;58.40;;;;;;5114862;28;20256;-67
2024/02/26 12:20:35;;;;;;;1.67;0.70;;;17.60;58.40;;;;;;5115287;28;20177;-68
2024/02/26 12:23:01;;;;;;;2.13;0.70;;;17.60;58.40;;;;;;5115853;28;20175;-63
2024/02/26 12:25:28;;;;;;;1.15;0.90;;;17.60;58.40;;;;;;5114689;28;20197;-66
2024/02/26 12:27:54;;;;;;;1.10;0.60;;;17.60;58.40;;;;;;5115590;28;20205;-74
2024/02/26 12:30:19;;;;;;;2.03;1.00;;;17.70;58.30;;;;;;5115536;28;20513;-66
2024/02/26 12:32:46;;;;;;;2.17;0.70;;;17.70;58.30;;;;;;5115057;28;20647;-67
2024/02/26 12:35:12;;;;;;;5.28;1.38;;;17.70;58.30;;;;;;5114061;28;20201;-68
2024/02/26 12:37:38;;;;;;;2.22;1.00;;;17.70;58.30;;;;;;5114133;28;20173;-67
2024/02/26 12:40:08;;;;;;;0.85;0.80;;;17.70;58.20;;;;;;5113449;28;20181;-70
2024/02/26 12:42:40;;;;;;;1.73;0.70;;;17.70;58.20;;;;;;5114199;28;20203;-69